Time;durP1;ratioP1;P1;durP2;ratioP2;P2;SDS_P1;SDS_P2;PMS_P1;PMS_P2;Temp;Humidity;BMP_temperature;BMP_pressure;BME280_temperature;BME280_humidity;BME280_pressure;Samples;Min_cycle;Max_cycle;Signal;HPM_P1;HPM_P2
2022/06/06 00:01:15;;;;;;;2.30;1.40;;;;;;;22.50;63.07;100438.53;5033464;28;20431;-60
2022/06/06 00:03:41;;;;;;;6.13;2.00;;;;;;;22.50;63.05;100429.91;5033498;28;20485;-60
2022/06/06 00:06:19;;;;;;;4.13;2.00;;;;;;;22.49;63.31;100425.38;5033010;28;20558;-60
2022/06/06 00:08:45;;;;;;;3.60;1.80;;;;;;;22.50;63.30;100426.19;5035855;28;20812;-60
2022/06/06 00:11:10;;;;;;;4.87;2.37;;;;;;;22.49;63.12;100427.44;5035856;28;20431;-60
2022/06/06 00:13:37;;;;;;;2.90;1.93;;;;;;;22.49;63.48;100436.06;5033003;28;20185;-60
2022/06/06 00:16:03;;;;;;;5.07;1.90;;;;;;;22.50;62.98;100426.19;5033250;28;20583;-60
2022/06/06 00:18:29;;;;;;;3.30;2.30;;;;;;;22.50;63.60;100431.94;5071353;28;20417;-60
2022/06/06 00:20:55;;;;;;;2.63;1.60;;;;;;;22.51;63.19;100436.47;5071721;28;20190;-60
2022/06/06 00:23:20;;;;;;;2.90;1.70;;;;;;;22.51;63.11;100427.84;5071566;28;20821;-59
2022/06/06 00:25:46;;;;;;;3.37;1.83;;;;;;;22.50;63.12;100429.91;5033294;28;20620;-60
2022/06/06 00:28:11;;;;;;;3.43;2.10;;;;;;;22.51;63.48;100422.91;5033617;28;20172;-60
2022/06/06 00:30:37;;;;;;;3.53;2.10;;;;;;;22.51;62.96;100427.84;5033282;28;20584;-57
2022/06/06 00:35:46;;;;;;;3.27;1.70;;;;;;;22.50;62.77;100432.78;5032979;28;20230;-58
2022/06/06 00:38:12;;;;;;;3.07;1.97;;;;;;;22.50;63.09;100432.78;5033171;28;20419;-58
2022/06/06 00:40:37;;;;;;;4.63;2.10;;;;;;;22.51;63.57;100431.56;5032569;28;20435;-58
2022/06/06 00:43:03;;;;;;;3.53;2.00;;;;;;;22.51;62.99;100436.47;5040608;28;20168;-58
2022/06/06 00:45:36;;;;;;;2.70;1.90;;;;;;;22.50;63.13;100434.81;5052408;28;20211;-60
2022/06/06 00:48:33;;;;;;;5.03;2.07;;;;;;;22.50;63.26;100426.19;5052490;28;20221;-58
2022/06/06 00:51:01;;;;;;;3.37;2.33;;;;;;;22.50;63.47;100417.56;5051026;28;20477;-58
2022/06/06 00:53:39;;;;;;;3.40;2.13;;;;;;;22.48;63.38;100417.97;5036818;28;21009;-58
2022/06/06 00:56:33;;;;;;;4.57;1.93;;;;;;;22.48;63.05;100412.19;5031014;28;20469;-58
2022/06/06 00:59:01;;;;;;;2.67;1.90;;;;;;;22.48;63.21;100417.16;5029068;28;20453;-57
2022/06/06 01:01:26;;;;;;;3.20;2.10;;;;;;;22.48;63.46;100417.97;5032357;28;20431;-58
2022/06/06 01:03:52;;;;;;;3.77;2.10;;;;;;;22.49;63.70;100408.13;5031435;28;20430;-57
2022/06/06 01:06:18;;;;;;;2.97;1.97;;;;;;;22.48;63.46;100412.19;5014195;28;20231;-58
2022/06/06 01:08:44;;;;;;;2.70;1.90;;;;;;;22.49;63.27;100410.16;5032436;28;20312;-57
2022/06/06 01:11:10;;;;;;;3.80;2.10;;;;;;;22.49;63.60;100402.38;5030915;28;20415;-60
2022/06/06 01:13:36;;;;;;;6.27;2.13;;;;;;;22.49;63.39;100407.28;5031895;28;20423;-58
2022/06/06 01:16:37;;;;;;;3.00;2.10;;;;;;;22.49;63.44;100399.50;5015211;28;20575;-58
2022/06/06 01:19:20;;;;;;;3.13;1.87;;;;;;;22.48;62.96;100397.81;5028921;28;20473;-58
2022/06/06 01:21:48;;;;;;;3.23;2.20;;;;;;;22.49;63.31;100402.38;5029080;28;20878;-58
2022/06/06 01:24:58;;;;;;;3.50;2.30;;;;;;;22.48;62.82;100394.94;5030481;28;20917;-58
2022/06/06 01:27:42;;;;;;;2.90;1.93;;;;;;;22.47;62.83;100401.94;5027667;28;20465;-58
2022/06/06 01:30:13;;;;;;;3.60;2.37;;;;;;;22.47;63.19;100401.13;5030263;28;20462;-58
2022/06/06 01:32:48;;;;;;;5.10;2.13;;;;;;;22.48;63.25;100406.44;5013253;28;20434;-58
2022/06/06 01:35:24;;;;;;;4.57;2.23;;;;;;;22.47;63.35;100409.75;5014432;28;20427;-58
2022/06/06 01:37:50;;;;;;;3.47;1.90;;;;;;;22.45;63.47;100400.69;5031624;28;20422;-58
2022/06/06 01:40:16;;;;;;;10.70;1.90;;;;;;;22.45;62.98;100401.53;5031819;28;20427;-58
2022/06/06 01:43:05;;;;;;;4.50;2.53;;;;;;;22.45;62.86;100401.53;5030026;28;20242;-58
2022/06/06 01:45:40;;;;;;;3.00;2.07;;;;;;;22.45;63.06;100398.66;5031472;28;20418;-58
2022/06/06 01:48:20;;;;;;;2.90;2.20;;;;;;;22.45;63.64;100395.78;5030696;28;20453;-58
2022/06/06 01:50:45;;;;;;;3.83;2.20;;;;;;;22.45;63.49;100386.31;5012122;28;20421;-58
2022/06/06 01:53:13;;;;;;;4.00;1.80;;;;;;;22.45;63.39;100395.78;5037071;28;20779;-58
2022/06/06 01:55:39;;;;;;;3.33;2.23;;;;;;;22.45;62.86;100390.00;5029476;28;20180;-58
2022/06/06 01:58:07;;;;;;;4.87;1.93;;;;;;;22.45;63.11;100392.91;5029976;28;20438;-58
2022/06/06 02:00:33;;;;;;;3.07;2.30;;;;;;;22.45;62.87;100384.25;5040583;28;20422;-58
2022/06/06 02:02:59;;;;;;;4.00;2.40;;;;;;;22.46;62.83;100385.06;5051033;28;20505;-58
2022/06/06 02:05:25;;;;;;;2.87;1.90;;;;;;;22.45;63.29;100386.31;5050964;28;20513;-58
2022/06/06 02:07:50;;;;;;;2.57;1.90;;;;;;;22.45;62.77;100386.31;5050255;28;20227;-58
2022/06/06 02:10:16;;;;;;;3.83;2.13;;;;;;;22.45;63.16;100390.00;5050679;28;20199;-58
2022/06/06 02:12:41;;;;;;;6.47;2.43;;;;;;;22.45;63.16;100386.31;5050982;28;20184;-58
2022/06/06 02:15:09;;;;;;;3.10;1.83;;;;;;;22.45;63.16;100384.25;5049987;28;20213;-58
2022/06/06 02:17:34;;;;;;;3.17;1.90;;;;;;;22.45;62.66;100386.31;5060906;28;20228;-58
2022/06/06 02:20:01;;;;;;;4.50;2.20;;;;;;;22.44;62.90;100385.50;5069646;28;21000;-58
2022/06/06 02:22:27;;;;;;;3.93;2.00;;;;;;;22.43;63.16;100378.03;5033141;28;20539;-58
2022/06/06 02:24:53;;;;;;;3.50;2.30;;;;;;;22.43;63.06;100380.91;5029873;28;20427;-58
2022/06/06 02:27:18;;;;;;;3.30;2.27;;;;;;;22.43;62.79;100383.00;5029554;28;20176;-58
2022/06/06 02:29:43;;;;;;;2.80;2.10;;;;;;;22.41;63.21;100383.38;5030114;28;20250;-58
2022/06/06 02:32:09;;;;;;;4.03;2.17;;;;;;;22.41;62.82;100379.69;5031076;28;20181;-57
2022/06/06 02:34:34;;;;;;;5.37;2.60;;;;;;;22.41;63.19;100383.38;5030740;28;20184;-58
2022/06/06 02:37:00;;;;;;;3.60;2.40;;;;;;;22.41;63.26;100383.38;5030866;28;20192;-58
2022/06/06 02:39:26;;;;;;;3.00;1.90;;;;;;;22.40;63.39;100378.88;5030489;28;20318;-58
2022/06/06 02:41:51;;;;;;;2.23;1.90;;;;;;;22.40;63.34;100375.16;5031178;28;20173;-58
2022/06/06 02:44:17;;;;;;;4.93;2.47;;;;;;;22.40;63.22;100378.03;5030782;28;20180;-58
2022/06/06 02:46:42;;;;;;;6.00;2.50;;;;;;;22.40;63.28;100383.78;5030808;28;20647;-58
2022/06/06 02:49:08;;;;;;;2.50;1.87;;;;;;;22.39;63.41;100377.22;5048180;28;20200;-57
2022/06/06 02:51:34;;;;;;;3.67;2.33;;;;;;;22.39;63.29;100374.34;5050862;28;20191;-58
2022/06/06 02:54:01;;;;;;;2.97;2.20;;;;;;;22.39;63.32;100368.59;5044234;28;20192;-58
2022/06/06 02:56:27;;;;;;;6.23;3.00;;;;;;;22.39;63.11;100371.47;5038579;28;20426;-58
2022/06/06 02:58:54;;;;;;;3.40;2.30;;;;;;;22.39;63.43;100370.63;5050689;28;20442;-58
2022/06/06 03:01:19;;;;;;;2.90;1.93;;;;;;;22.38;63.22;100375.56;5049284;28;20425;-58
2022/06/06 03:03:45;;;;;;;2.97;2.30;;;;;;;22.37;63.28;100368.16;5050508;28;20419;-58
2022/06/06 03:06:28;;;;;;;2.80;1.90;;;;;;;22.38;63.01;100366.91;5050453;28;20683;-58
2022/06/06 03:09:21;;;;;;;2.80;2.03;;;;;;;22.37;63.34;100368.16;5050512;28;20716;-58
2022/06/06 03:12:31;;;;;;;3.50;2.40;;;;;;;22.39;63.15;100373.50;5050420;28;20442;-58
2022/06/06 03:15:32;;;;;;;3.60;2.03;;;;;;;22.37;63.09;100373.91;5032218;28;20468;-58
2022/06/06 03:21:22;;;;;;;5.27;2.50;;;;;;;22.38;63.13;100374.75;5074082;28;20392;-58
2022/06/06 03:24:06;;;;;;;3.93;2.43;;;;;;;22.39;63.50;100379.25;5065128;28;20445;-58
2022/06/06 03:26:46;;;;;;;4.43;2.40;;;;;;;22.38;63.01;100375.56;5033969;28;20476;-58
2022/06/06 03:29:44;;;;;;;5.00;2.73;;;;;;;22.38;63.38;100377.63;5033935;28;20454;-58
2022/06/06 03:32:12;;;;;;;4.20;2.20;;;;;;;22.36;63.38;100374.31;5034084;28;20423;-58
2022/06/06 03:34:44;;;;;;;3.30;2.67;;;;;;;22.36;62.95;100380.91;5033946;28;20423;-57
2022/06/06 03:37:16;;;;;;;6.70;2.50;;;;;;;22.35;63.09;100378.44;5033997;28;20425;-58
2022/06/06 03:40:03;;;;;;;4.33;2.50;;;;;;;22.37;63.07;100384.63;5032555;28;20419;-58
2022/06/06 03:42:48;;;;;;;4.30;2.30;;;;;;;22.36;63.47;100380.06;5033814;28;20429;-58
2022/06/06 03:45:28;;;;;;;3.70;2.40;;;;;;;22.35;63.43;100385.00;5033680;28;20414;-58
2022/06/06 03:48:09;;;;;;;3.70;2.23;;;;;;;22.34;63.08;100383.38;5034130;28;20473;-58
2022/06/06 03:50:44;;;;;;;3.40;2.60;;;;;;;22.35;63.10;100382.13;5033570;28;20453;-58
2022/06/06 03:53:17;;;;;;;4.63;2.60;;;;;;;22.35;63.37;100387.06;5032572;28;20410;-58
2022/06/06 03:56:01;;;;;;;5.73;2.80;;;;;;;22.36;63.46;100382.94;5016449;28;20938;-58
2022/06/06 03:58:28;;;;;;;4.77;2.50;;;;;;;22.35;63.42;100385.00;5033507;28;20412;-58
2022/06/06 04:00:55;;;;;;;5.90;3.03;;;;;;;22.35;63.08;100382.13;5041149;28;20509;-58
2022/06/06 04:03:20;;;;;;;4.27;2.80;;;;;;;22.35;63.37;100387.88;5052119;28;20422;-58
2022/06/06 04:05:46;;;;;;;7.20;2.50;;;;;;;22.37;64.09;100388.28;5053208;28;20438;-58
2022/06/06 04:08:11;;;;;;;3.50;2.10;;;;;;;22.36;63.00;100386.66;5052017;28;20656;-58
2022/06/06 04:10:49;;;;;;;3.70;2.30;;;;;;;22.38;63.16;100389.94;5035880;28;20204;-57
2022/06/06 04:13:40;;;;;;;5.33;2.80;;;;;;;22.38;63.30;100383.38;5033114;28;20198;-58
2022/06/06 04:16:43;;;;;;;3.53;2.30;;;;;;;22.38;63.15;100386.25;5033317;28;20952;-57
2022/06/06 04:19:33;;;;;;;5.03;2.77;;;;;;;22.39;63.12;100385.03;5033105;28;20439;-60
2022/06/06 04:22:23;;;;;;;3.33;2.60;;;;;;;22.37;63.22;100385.41;5052405;28;20794;-60
2022/06/06 04:25:13;;;;;;;4.57;2.60;;;;;;;22.37;63.26;100388.28;5039975;28;20411;-57
2022/06/06 04:28:06;;;;;;;3.63;2.00;;;;;;;22.37;63.47;100379.66;5032915;28;20406;-57
2022/06/06 04:30:53;;;;;;;3.60;2.30;;;;;;;22.38;63.38;100392.00;5030764;28;20512;-57
2022/06/06 04:33:42;;;;;;;4.57;2.33;;;;;;;22.37;62.86;100387.50;5017896;28;20415;-57
2022/06/06 04:36:26;;;;;;;3.67;2.80;;;;;;;22.37;62.74;100382.53;5032177;28;20435;-57
2022/06/06 04:39:05;;;;;;;4.40;2.23;;;;;;;22.38;63.26;100389.13;5032694;28;20415;-58
2022/06/06 04:41:55;;;;;;;4.07;2.70;;;;;;;22.37;62.89;100388.28;5032890;28;20450;-58
2022/06/06 04:44:33;;;;;;;4.60;2.40;;;;;;;22.36;63.44;100380.91;5031344;28;20416;-57
2022/06/06 04:47:02;;;;;;;3.50;2.37;;;;;;;22.38;62.83;100386.25;5032808;28;20449;-57
2022/06/06 04:49:28;;;;;;;3.10;2.37;;;;;;;22.37;63.36;100394.06;5015108;28;20455;-58
2022/06/06 04:51:53;;;;;;;2.93;1.70;;;;;;;22.39;63.01;100396.53;5031355;28;20422;-58
2022/06/06 04:54:20;;;;;;;3.23;2.40;;;;;;;22.39;63.22;100400.25;5031248;28;20185;-58
2022/06/06 04:56:46;;;;;;;4.60;2.57;;;;;;;22.39;62.96;100396.53;5035787;28;20187;-58
2022/06/06 04:59:11;;;;;;;3.43;2.50;;;;;;;22.39;62.86;100402.28;5049183;28;20816;-58
2022/06/06 05:01:40;;;;;;;4.03;2.67;;;;;;;22.38;62.89;100404.31;5049148;28;20176;-58
2022/06/06 05:04:05;;;;;;;3.87;2.70;;;;;;;22.36;63.35;100401.03;5050513;28;20195;-58
2022/06/06 05:07:03;;;;;;;3.80;2.70;;;;;;;22.35;63.54;100404.31;5041027;28;20482;-58
2022/06/06 05:09:34;;;;;;;3.27;2.40;;;;;;;22.38;63.24;100400.63;5030579;28;20192;-58
2022/06/06 05:12:29;;;;;;;4.13;2.57;;;;;;;22.38;63.34;100401.44;5031268;28;20422;-58
2022/06/06 05:15:12;;;;;;;4.67;2.77;;;;;;;22.40;62.99;100410.50;5032418;28;20411;-58
2022/06/06 05:18:01;;;;;;;5.47;2.63;;;;;;;22.41;62.75;100414.19;5030294;28;20434;-57
2022/06/06 05:20:45;;;;;;;5.00;2.50;;;;;;;22.40;63.26;100404.75;5036090;28;20784;-58
2022/06/06 05:23:16;;;;;;;3.70;3.00;;;;;;;22.40;63.22;100404.75;5051913;28;20458;-58
2022/06/06 05:26:03;;;;;;;3.90;2.10;;;;;;;22.43;62.80;100412.56;5031996;28;20422;-58
2022/06/06 05:28:41;;;;;;;3.73;2.30;;;;;;;22.43;63.08;100415.44;5031970;28;20512;-58
2022/06/06 05:31:31;;;;;;;3.63;2.57;;;;;;;22.41;63.26;100428.59;5031732;28;20434;-58
2022/06/06 05:34:13;;;;;;;3.30;2.50;;;;;;;22.41;63.54;100420.78;5030803;28;20498;-57
2022/06/06 05:36:42;;;;;;;3.47;2.70;;;;;;;22.39;63.50;100420.38;5030396;28;20419;-58
2022/06/06 05:39:32;;;;;;;4.10;2.50;;;;;;;22.39;63.31;100419.53;5031752;28;20418;-58
2022/06/06 05:42:28;;;;;;;3.33;2.50;;;;;;;22.39;63.39;100429.00;5031758;28;20443;-58
2022/06/06 05:44:57;;;;;;;5.33;3.00;;;;;;;22.39;63.24;100423.25;5030112;28;20415;-58
2022/06/06 05:48:01;;;;;;;8.40;2.57;;;;;;;22.39;63.15;100420.38;5031656;28;20435;-57
2022/06/06 05:50:40;;;;;;;5.03;3.00;;;;;;;22.38;63.14;100430.22;5031201;28;20459;-58
2022/06/06 05:53:52;;;;;;;4.50;2.90;;;;;;;22.39;63.02;100437.66;5031308;28;20497;-59
2022/06/06 05:56:25;;;;;;;6.60;2.70;;;;;;;22.36;62.98;100438.44;5038682;28;20441;-58
2022/06/06 05:59:21;;;;;;;3.47;2.60;;;;;;;22.37;63.47;100442.16;5048658;28;20418;-58
2022/06/06 06:02:19;;;;;;;3.57;2.50;;;;;;;22.36;63.36;100449.94;5050742;28;20457;-58
2022/06/06 06:05:27;;;;;;;4.27;2.20;;;;;;;22.35;63.05;100451.19;5051069;28;20407;-58
2022/06/06 06:08:26;;;;;;;4.27;2.70;;;;;;;22.37;63.41;100450.78;5049331;28;20504;-58
2022/06/06 06:11:11;;;;;;;3.30;2.50;;;;;;;22.36;63.05;100449.94;5050919;28;20909;-58
2022/06/06 06:13:40;;;;;;;4.10;2.90;;;;;;;22.35;63.20;100445.44;5050953;28;20417;-58
2022/06/06 06:16:05;;;;;;;4.50;2.97;;;;;;;22.35;63.42;100439.66;5036006;28;20426;-58
2022/06/06 06:18:40;;;;;;;5.00;2.73;;;;;;;22.36;62.89;100449.09;5041781;28;20431;-60
2022/06/06 06:21:19;;;;;;;4.70;2.73;;;;;;;22.36;62.67;100446.22;5014444;28;20180;-57
2022/06/06 06:23:54;;;;;;;5.70;2.87;;;;;;;22.34;63.05;100446.66;5034152;28;20545;-58
2022/06/06 06:26:20;;;;;;;4.00;2.83;;;;;;;22.35;63.15;100450.34;5030782;28;20432;-58
2022/06/06 06:28:45;;;;;;;5.83;2.50;;;;;;;22.35;63.05;100456.94;5030985;28;20423;-58
2022/06/06 06:31:17;;;;;;;7.20;3.57;;;;;;;22.35;63.23;100462.69;5029598;28;20192;-59
2022/06/06 06:34:13;;;;;;;4.17;2.60;;;;;;;22.36;62.69;100466.38;5030901;28;20257;-58
2022/06/06 06:36:46;;;;;;;4.93;2.70;;;;;;;22.35;62.80;100470.47;5030858;28;20470;-58
2022/06/06 06:39:39;;;;;;;3.50;2.80;;;;;;;22.34;63.12;100466.78;5030847;28;20506;-58
2022/06/06 06:42:41;;;;;;;7.00;2.77;;;;;;;22.34;62.90;100474.59;5029836;28;20506;-59
2022/06/06 06:45:09;;;;;;;3.30;2.50;;;;;;;22.34;63.27;100474.59;5030679;28;20418;-58
2022/06/06 06:47:35;;;;;;;4.53;2.90;;;;;;;22.34;62.80;100469.69;5029435;28;20458;-58
2022/06/06 06:50:15;;;;;;;5.10;3.50;;;;;;;22.34;63.10;100472.56;5030569;28;20465;-58
2022/06/06 06:53:12;;;;;;;7.80;3.00;;;;;;;22.35;63.17;100479.09;5030425;28;20404;-58
2022/06/06 06:55:52;;;;;;;3.70;2.50;;;;;;;22.35;63.07;100482.81;5053157;28;20438;-59
2022/06/06 06:58:54;;;;;;;3.63;3.00;;;;;;;22.35;62.57;100482.00;5053360;28;20445;-58
2022/06/06 07:01:38;;;;;;;3.47;2.80;;;;;;;22.35;62.63;100488.56;5054117;28;20717;-58
2022/06/06 07:10:41;;;;;;;5.10;2.53;;;;;;;22.35;62.95;100487.75;5054337;28;20496;-58
2022/06/06 07:13:40;;;;;;;5.40;2.67;;;;;;;22.35;62.75;100491.44;5038265;28;20422;-58
2022/06/06 07:16:28;;;;;;;3.30;2.53;;;;;;;22.35;63.07;100482.81;5035326;28;20415;-58
2022/06/06 07:19:17;;;;;;;4.50;2.70;;;;;;;22.35;62.97;100479.94;5016920;28;20823;-59
2022/06/06 07:21:45;;;;;;;4.43;3.20;;;;;;;22.34;62.98;100478.31;5034111;28;21263;-58
2022/06/06 07:24:12;;;;;;;3.60;2.70;;;;;;;22.34;62.84;100471.72;5034440;28;20546;-58
2022/06/06 07:26:41;;;;;;;5.10;2.97;;;;;;;22.35;62.97;100473.34;5033973;28;20442;-58
2022/06/06 07:29:07;;;;;;;3.50;2.77;;;;;;;22.34;62.98;100469.69;5034320;28;20485;-58
2022/06/06 07:31:40;;;;;;;3.80;2.80;;;;;;;22.35;62.47;100479.94;5034079;28;20414;-58
2022/06/06 07:34:20;;;;;;;4.00;3.20;;;;;;;22.34;62.96;100478.31;5033869;28;20433;-59
2022/06/06 07:36:57;;;;;;;5.97;2.97;;;;;;;22.35;62.70;100473.34;5033942;28;20419;-58
2022/06/06 07:39:53;;;;;;;5.70;3.20;;;;;;;22.34;62.71;100465.97;5032787;28;20741;-58
2022/06/06 07:42:21;;;;;;;5.07;3.13;;;;;;;22.35;63.04;100474.19;5033832;28;20419;-58
2022/06/06 07:45:24;;;;;;;4.00;3.07;;;;;;;22.34;62.61;100463.91;5033578;28;20472;-58
2022/06/06 07:48:33;;;;;;;5.20;2.63;;;;;;;22.34;62.63;100463.91;5033656;28;20914;-58
2022/06/06 07:51:20;;;;;;;3.80;3.03;;;;;;;22.35;62.80;100462.69;5032433;28;20466;-58
2022/06/06 07:53:58;;;;;;;6.10;3.40;;;;;;;22.34;62.43;100461.03;5036105;28;20525;-58
2022/06/06 07:56:45;;;;;;;5.37;3.50;;;;;;;22.32;62.48;100456.91;5032144;28;20792;-58
2022/06/06 07:59:36;;;;;;;9.37;3.70;;;;;;;22.32;61.99;100449.09;5044291;28;21212;-59
2022/06/06 08:02:23;;;;;;;9.90;4.00;;;;;;;22.33;62.63;100444.19;5051520;28;20409;-60
2022/06/06 08:04:57;;;;;;;5.03;3.47;;;;;;;22.37;63.08;100445.03;5052101;28;20390;-60
2022/06/06 08:07:52;;;;;;;4.90;3.23;;;;;;;22.43;62.90;100435.56;5041120;28;21046;-60
2022/06/06 08:10:33;;;;;;;14.87;5.70;;;;;;;22.57;64.64;100443.50;5042186;28;20474;-60
2022/06/06 08:13:06;;;;;;;18.10;5.50;;;;;;;22.81;64.19;100437.81;5029447;28;20915;-60
2022/06/06 08:15:39;;;;;;;12.70;4.80;;;;;;;22.81;63.61;100437.00;5029780;28;20419;-60
2022/06/06 08:18:24;;;;;;;7.63;3.93;;;;;;;22.86;62.32;100433.72;5043733;28;20920;-60
2022/06/06 08:21:08;;;;;;;9.57;5.10;;;;;;;22.69;62.38;100429.56;5049981;28;20548;-60
2022/06/06 08:23:34;;;;;;;10.97;4.60;;;;;;;22.63;62.65;100431.16;5046852;28;20428;-59
2022/06/06 08:26:01;;;;;;;9.20;3.80;;;;;;;22.60;62.08;100431.16;5031771;28;20932;-60
2022/06/06 08:28:26;;;;;;;9.23;3.60;;;;;;;22.60;61.57;100431.16;5041586;28;20438;-60
2022/06/06 08:30:52;;;;;;;6.23;3.97;;;;;;;22.57;61.18;100432.00;5030818;28;20800;-60
2022/06/06 08:33:17;;;;;;;7.60;4.60;;;;;;;22.70;61.82;100428.34;5030840;28;20172;-60
2022/06/06 08:35:55;;;;;;;4.73;3.60;;;;;;;22.75;61.98;100427.09;5031570;28;20176;-60
2022/06/06 08:38:44;;;;;;;8.30;3.77;;;;;;;22.78;61.72;100418.47;5030054;28;20160;-60
2022/06/06 08:41:28;;;;;;;9.90;4.30;;;;;;;22.84;61.53;100424.66;5029345;28;20454;-60
2022/06/06 08:44:24;;;;;;;9.07;3.83;;;;;;;22.80;60.73;100418.91;5037979;28;20445;-59
2022/06/06 08:46:56;;;;;;;6.30;3.40;;;;;;;22.89;61.06;100428.00;5046910;28;20495;-60
2022/06/06 08:53:05;;;;;;;5.40;3.77;;;;;;;22.91;60.93;100410.28;5047409;28;20807;-60
2022/06/06 08:55:57;;;;;;;7.63;3.40;;;;;;;22.86;60.83;100410.69;5030589;28;20403;-60
2022/06/06 08:58:55;;;;;;;8.57;3.90;;;;;;;22.89;60.17;100409.88;5029002;28;20485;-60
2022/06/06 09:01:36;;;;;;;5.03;3.20;;;;;;;22.87;59.74;100410.28;5027981;28;20430;-60
2022/06/06 09:04:36;;;;;;;6.03;3.07;;;;;;;22.89;60.35;100410.72;5029195;28;20509;-60
2022/06/06 09:07:27;;;;;;;4.63;3.47;;;;;;;22.85;59.96;100407.00;5033934;28;20891;-59
2022/06/06 09:10:04;;;;;;;7.00;3.47;;;;;;;22.85;60.67;100398.34;5033425;28;20849;-59
2022/06/06 09:12:41;;;;;;;6.30;4.07;;;;;;;22.90;60.81;100400.00;5028923;28;20929;-60
2022/06/06 09:15:23;;;;;;;5.30;3.77;;;;;;;22.88;60.94;100390.97;5038242;28;20431;-60
2022/06/06 09:17:54;;;;;;;5.10;2.87;;;;;;;22.88;60.36;100396.72;5053508;28;20561;-60
2022/06/06 09:20:22;;;;;;;13.13;3.40;;;;;;;22.84;60.45;100402.47;5046615;28;20404;-60
2022/06/06 09:22:57;;;;;;;8.53;3.57;;;;;;;22.82;60.26;100396.28;5050304;28;20414;-60
2022/06/06 09:25:30;;;;;;;7.40;3.70;;;;;;;22.82;60.06;100393.41;5032285;28;21012;-61
2022/06/06 09:28:11;;;;;;;7.27;3.60;;;;;;;22.81;60.36;100399.56;5028802;28;20419;-60
2022/06/06 09:30:45;;;;;;;6.03;2.80;;;;;;;22.81;59.95;100405.31;5047638;28;20661;-59
2022/06/06 09:33:50;;;;;;;6.33;3.20;;;;;;;22.79;59.86;100405.75;5048118;28;20432;-60
2022/06/06 09:36:23;;;;;;;11.73;3.13;;;;;;;22.79;59.97;100400.00;5047649;28;20831;-60
2022/06/06 09:39:03;;;;;;;4.30;2.80;;;;;;;22.79;59.91;100410.69;5036093;28;20496;-60
2022/06/06 09:41:49;;;;;;;5.57;3.60;;;;;;;22.77;59.78;100416.03;5040844;28;20483;-60
2022/06/06 09:44:33;;;;;;;3.47;2.60;;;;;;;22.76;60.16;100417.22;5039811;28;20441;-60
2022/06/06 09:47:08;;;;;;;5.17;2.77;;;;;;;22.73;60.29;100392.16;5049881;28;20714;-60
2022/06/06 09:50:08;;;;;;;4.33;2.93;;;;;;;22.73;60.10;100390.09;5047396;28;20808;-60
2022/06/06 09:52:58;;;;;;;6.70;2.90;;;;;;;22.74;60.08;100394.63;5030788;28;20426;-60
2022/06/06 09:59:25;;;;;;;6.07;3.03;;;;;;;22.79;61.14;100391.38;5030646;28;20433;-60
2022/06/06 10:02:11;;;;;;;6.70;3.10;;;;;;;22.78;61.26;100389.69;5028808;28;20895;-59
2022/06/06 10:04:54;;;;;;;11.40;2.90;;;;;;;22.73;61.84;100380.66;5036871;28;20419;-60
2022/06/06 10:08:02;;;;;;;4.80;2.90;;;;;;;22.69;61.95;100382.69;5048160;28;20489;-60
2022/06/06 10:10:45;;;;;;;7.37;3.30;;;;;;;22.66;62.20;100384.31;5047796;28;20469;-60
2022/06/06 10:13:31;;;;;;;4.30;3.00;;;;;;;22.67;62.25;100390.91;5045328;28;20471;-60
2022/06/06 10:16:33;;;;;;;5.93;2.83;;;;;;;22.65;62.01;100382.69;5035513;28;20937;-59
2022/06/06 10:19:09;;;;;;;5.13;3.10;;;;;;;22.65;61.89;100371.16;5029055;28;20489;-60
2022/06/06 10:21:51;;;;;;;5.67;3.20;;;;;;;22.66;62.47;100377.72;5027780;28;20472;-60
2022/06/06 10:24:42;;;;;;;3.37;2.47;;;;;;;22.68;62.00;100364.59;5037328;28;20470;-60
2022/06/06 10:27:22;;;;;;;4.63;2.83;;;;;;;22.71;61.88;100349.38;5034767;28;20530;-59
2022/06/06 10:30:12;;;;;;;4.90;3.03;;;;;;;22.71;61.91;100345.66;5047132;28;20454;-59
2022/06/06 10:33:12;;;;;;;5.33;2.87;;;;;;;22.69;61.47;100348.97;5049387;28;20411;-59
2022/06/06 10:35:40;;;;;;;7.80;2.70;;;;;;;22.67;61.38;100345.66;5047669;28;20489;-59
2022/06/06 10:38:05;;;;;;;3.30;2.60;;;;;;;22.70;61.52;100344.88;5043440;28;20933;-60
2022/06/06 10:41:00;;;;;;;4.53;3.13;;;;;;;22.70;61.34;100339.09;5029018;28;20419;-60
2022/06/06 10:43:58;;;;;;;5.00;3.10;;;;;;;22.72;61.44;100351.03;5034034;28;20176;-60
2022/06/06 10:46:39;;;;;;;4.13;3.10;;;;;;;22.75;60.88;100350.22;5049267;28;20450;-60
2022/06/06 10:49:14;;;;;;;5.37;3.30;;;;;;;22.75;60.23;100344.47;5048306;28;20550;-60
2022/06/06 10:51:43;;;;;;;4.00;2.90;;;;;;;22.75;60.43;100349.38;5045130;28;20441;-59
2022/06/06 10:54:30;;;;;;;6.00;3.13;;;;;;;22.75;60.30;100353.09;5043036;28;20479;-60
2022/06/06 10:57:07;;;;;;;7.63;3.10;;;;;;;22.76;59.86;100348.97;5049789;28;21182;-60
2022/06/06 10:59:56;;;;;;;5.90;3.37;;;;;;;22.79;59.36;100347.34;5043307;28;20456;-59
2022/06/06 11:03:02;;;;;;;5.50;3.20;;;;;;;22.75;59.72;100346.50;5046924;28;20425;-60
2022/06/06 11:05:42;;;;;;;10.83;3.07;;;;;;;22.71;59.52;100351.44;5045957;28;20984;-60
2022/06/06 11:08:21;;;;;;;4.13;3.20;;;;;;;22.72;59.79;100342.38;5042316;28;20498;-60
2022/06/06 11:11:25;;;;;;;5.97;3.10;;;;;;;22.71;59.25;100345.66;5050775;28;20453;-60
2022/06/06 11:14:12;;;;;;;4.93;3.10;;;;;;;22.71;59.43;100340.75;5041270;28;20783;-60
2022/06/06 11:16:52;;;;;;;5.40;3.23;;;;;;;22.70;59.59;100336.22;5045687;28;20471;-59
2022/06/06 11:19:23;;;;;;;5.80;3.37;;;;;;;22.73;59.01;100328.84;5043397;28;20487;-59
2022/06/06 11:22:03;;;;;;;6.17;3.50;;;;;;;22.76;58.74;100325.94;5043375;28;20442;-59
2022/06/06 11:24:50;;;;;;;3.73;2.80;;;;;;;22.78;58.80;100328.44;5046869;28;20971;-59
2022/06/06 11:27:49;;;;;;;6.60;2.80;;;;;;;22.79;58.45;100325.16;5027863;28;20414;-59
2022/06/06 11:30:37;;;;;;;5.60;2.77;;;;;;;22.77;57.98;100323.91;5027715;28;20473;-59
2022/06/06 11:33:15;;;;;;;5.83;2.60;;;;;;;22.76;58.29;100325.13;5029062;28;20406;-59
2022/06/06 11:36:05;;;;;;;4.77;3.13;;;;;;;22.76;58.12;100320.19;5030518;28;20399;-59
2022/06/06 11:39:03;;;;;;;4.60;3.00;;;;;;;22.78;58.43;100314.84;5030855;28;20477;-59
2022/06/06 11:41:44;;;;;;;6.10;2.80;;;;;;;22.77;58.03;100315.28;5043168;28;20787;-59
2022/06/06 11:44:30;;;;;;;4.13;2.77;;;;;;;22.79;58.14;100321.44;5025934;28;21013;-60
2022/06/06 11:47:19;;;;;;;3.67;2.67;;;;;;;22.77;58.32;100309.53;5031393;28;20488;-60
2022/06/06 11:50:06;;;;;;;4.07;2.57;;;;;;;22.72;57.30;100313.59;5072889;28;20452;-60
2022/06/06 11:52:39;;;;;;;5.13;2.63;;;;;;;22.76;57.71;100317.31;5034056;28;20446;-60
2022/06/06 11:55:10;;;;;;;5.07;2.47;;;;;;;22.79;57.09;100313.63;5030467;28;20787;-60
2022/06/06 11:57:40;;;;;;;4.20;2.30;;;;;;;22.84;57.23;100316.09;5048759;28;20466;-60
2022/06/06 12:00:10;;;;;;;8.27;2.90;;;;;;;22.90;58.08;100308.69;5032096;28;20418;-60
2022/06/06 12:02:42;;;;;;;5.43;2.80;;;;;;;22.90;58.60;100308.69;5031822;28;20427;-60
2022/06/06 12:05:28;;;;;;;8.80;3.00;;;;;;;22.94;59.08;100297.19;5034463;28;20434;-60
2022/06/06 12:08:16;;;;;;;12.03;2.87;;;;;;;22.91;58.75;100287.31;5052515;28;20822;-62
2022/06/06 12:11:02;;;;;;;4.97;2.60;;;;;;;22.89;58.13;100286.06;5049704;28;20455;-60
2022/06/06 12:13:59;;;;;;;4.37;2.33;;;;;;;22.87;58.52;100288.56;5046569;28;20794;-60
2022/06/06 12:16:52;;;;;;;5.33;2.80;;;;;;;22.83;57.14;100282.78;5038513;28;20539;-59
2022/06/06 12:19:36;;;;;;;4.20;2.87;;;;;;;22.74;57.22;100281.53;5073113;28;20421;-59
2022/06/06 12:22:01;;;;;;;3.57;2.50;;;;;;;22.75;58.07;100291.81;5044414;28;20462;-60
2022/06/06 12:24:33;;;;;;;4.17;2.37;;;;;;;22.72;57.53;100281.94;5033135;28;20767;-59
2022/06/06 12:26:58;;;;;;;6.33;2.77;;;;;;;22.74;56.76;100285.25;5033491;28;20165;-59
2022/06/06 12:29:32;;;;;;;3.83;2.20;;;;;;;22.69;56.60;100285.66;5033570;28;20477;-59
2022/06/06 12:32:09;;;;;;;5.43;2.63;;;;;;;22.68;56.29;100288.94;5033189;28;20270;-59
2022/06/06 12:34:43;;;;;;;4.80;2.63;;;;;;;22.71;58.38;100283.19;5033024;28;20461;-59
2022/06/06 12:37:24;;;;;;;5.40;2.60;;;;;;;22.77;58.02;100290.19;5049491;28;20458;-59